sensor_id;sensor_type;location;lat;lon;timestamp;pressure;altitude;pressure_sealevel;temperature;humidity
39897;BME280;25567;48.276;14.242;2022-11-27T00:01:18;99784.69;;;3.65;100.00
39897;BME280;25567;48.276;14.242;2022-11-27T00:03:45;99778.75;;;3.63;100.00
39897;BME280;25567;48.276;14.242;2022-11-27T00:06:14;99786.09;;;3.59;100.00
39897;BME280;25567;48.276;14.242;2022-11-27T00:08:42;99788.44;;;3.62;100.00
39897;BME280;25567;48.276;14.242;2022-11-27T00:11:15;99777.47;;;3.67;100.00
39897;BME280;25567;48.276;14.242;2022-11-27T00:13:44;99778.09;;;3.61;100.00
39897;BME280;25567;48.276;14.242;2022-11-27T00:16:11;99769.97;;;3.72;100.00
39897;BME280;25567;48.276;14.242;2022-11-27T00:18:39;99774.34;;;3.63;100.00
39897;BME280;25567;48.276;14.242;2022-11-27T00:21:11;99773.13;;;3.58;100.00
39897;BME280;25567;48.276;14.242;2022-11-27T00:23:38;99766.75;;;3.60;100.00
39897;BME280;25567;48.276;14.242;2022-11-27T00:26:06;99770.53;;;3.40;100.00
39897;BME280;25567;48.276;14.242;2022-11-27T00:28:33;99764.38;;;3.31;100.00
39897;BME280;25567;48.276;14.242;2022-11-27T00:31:02;99773.94;;;3.22;100.00
39897;BME280;25567;48.276;14.242;2022-11-27T00:33:29;99772.59;;;3.18;100.00
39897;BME280;25567;48.276;14.242;2022-11-27T00:36:01;99768.47;;;3.15;100.00
39897;BME280;25567;48.276;14.242;2022-11-27T00:38:28;99767.41;;;3.08;100.00
39897;BME280;25567;48.276;14.242;2022-11-27T00:40:58;99763.88;;;2.99;100.00
39897;BME280;25567;48.276;14.242;2022-11-27T00:43:25;99758.38;;;2.93;100.00
39897;BME280;25567;48.276;14.242;2022-11-27T00:45:52;99752.53;;;2.81;100.00
39897;BME280;25567;48.276;14.242;2022-11-27T00:48:19;99762.13;;;2.90;100.00
39897;BME280;25567;48.276;14.242;2022-11-27T00:50:45;99762.28;;;2.89;100.00
39897;BME280;25567;48.276;14.242;2022-11-27T00:53:12;99766.63;;;2.80;100.00
39897;BME280;25567;48.276;14.242;2022-11-27T00:55:39;99769.75;;;2.83;100.00
39897;BME280;25567;48.276;14.242;2022-11-27T00:58:05;99766.94;;;2.67;100.00
39897;BME280;25567;48.276;14.242;2022-11-27T01:00:32;99765.53;;;2.73;100.00
39897;BME280;25567;48.276;14.242;2022-11-27T01:02:59;99771.75;;;2.72;100.00
39897;BME280;25567;48.276;14.242;2022-11-27T01:05:25;99774.25;;;2.63;100.00
39897;BME280;25567;48.276;14.242;2022-11-27T01:07:52;99775.81;;;2.56;100.00
39897;BME280;25567;48.276;14.242;2022-11-27T01:10:19;99774.81;;;2.57;100.00
39897;BME280;25567;48.276;14.242;2022-11-27T01:12:48;99776.84;;;2.45;100.00
39897;BME280;25567;48.276;14.242;2022-11-27T01:15:15;99775.69;;;2.48;100.00
39897;BME280;25567;48.276;14.242;2022-11-27T01:17:45;99785.53;;;2.36;100.00
39897;BME280;25567;48.276;14.242;2022-11-27T01:20:12;99781.44;;;2.24;100.00
39897;BME280;25567;48.276;14.242;2022-11-27T01:22:38;99779.22;;;2.29;100.00
39897;BME280;25567;48.276;14.242;2022-11-27T01:25:06;99775.47;;;2.31;100.00
39897;BME280;25567;48.276;14.242;2022-11-27T01:27:33;99776.28;;;2.32;100.00
39897;BME280;25567;48.276;14.242;2022-11-27T01:29:59;99767.47;;;2.33;100.00
39897;BME280;25567;48.276;14.242;2022-11-27T01:32:26;99767.78;;;2.30;100.00
39897;BME280;25567;48.276;14.242;2022-11-27T01:34:53;99773.41;;;2.35;100.00
39897;BME280;25567;48.276;14.242;2022-11-27T01:37:20;99766.81;;;2.21;100.00
39897;BME280;25567;48.276;14.242;2022-11-27T01:39:46;99762.28;;;2.13;100.00
39897;BME280;25567;48.276;14.242;2022-11-27T01:42:13;99764.09;;;2.13;100.00
39897;BME280;25567;48.276;14.242;2022-11-27T01:44:47;99766.41;;;2.16;100.00
39897;BME280;25567;48.276;14.242;2022-11-27T01:47:23;99761.63;;;2.11;100.00
39897;BME280;25567;48.276;14.242;2022-11-27T01:49:55;99767.00;;;2.10;100.00
39897;BME280;25567;48.276;14.242;2022-11-27T01:52:27;99757.06;;;2.13;100.00
39897;BME280;25567;48.276;14.242;2022-11-27T01:55:00;99762.03;;;2.16;100.00
39897;BME280;25567;48.276;14.242;2022-11-27T01:57:33;99748.00;;;2.08;100.00
39897;BME280;25567;48.276;14.242;2022-11-27T02:00:03;99750.06;;;2.04;100.00
39897;BME280;25567;48.276;14.242;2022-11-27T02:02:31;99747.75;;;1.91;100.00
39897;BME280;25567;48.276;14.242;2022-11-27T02:04:57;99749.38;;;1.92;100.00
39897;BME280;25567;48.276;14.242;2022-11-27T02:07:24;99749.81;;;1.88;100.00
39897;BME280;25567;48.276;14.242;2022-11-27T02:09:51;99746.94;;;1.81;100.00
39897;BME280;25567;48.276;14.242;2022-11-27T02:15:20;99736.50;;;1.61;100.00
39897;BME280;25567;48.276;14.242;2022-11-27T02:17:56;99727.41;;;1.56;100.00
39897;BME280;25567;48.276;14.242;2022-11-27T02:34:05;99713.66;;;1.54;100.00
39897;BME280;25567;48.276;14.242;2022-11-27T02:36:34;99722.47;;;1.53;100.00
39897;BME280;25567;48.276;14.242;2022-11-27T02:39:09;99726.19;;;1.30;100.00
39897;BME280;25567;48.276;14.242;2022-11-27T02:41:42;99720.41;;;1.37;100.00
39897;BME280;25567;48.276;14.242;2022-11-27T02:44:11;99718.06;;;1.33;100.00
39897;BME280;25567;48.276;14.242;2022-11-27T02:46:39;99712.44;;;1.38;100.00
39897;BME280;25567;48.276;14.242;2022-11-27T02:49:14;99715.59;;;1.42;100.00
39897;BME280;25567;48.276;14.242;2022-11-27T02:51:50;99702.50;;;1.42;100.00
39897;BME280;25567;48.276;14.242;2022-11-27T02:54:24;99700.88;;;1.41;100.00
39897;BME280;25567;48.276;14.242;2022-11-27T02:56:52;99704.31;;;1.31;100.00
39897;BME280;25567;48.276;14.242;2022-11-27T02:59:21;99702.66;;;1.30;100.00
39897;BME280;25567;48.276;14.242;2022-11-27T03:01:55;99700.31;;;1.47;100.00
39897;BME280;25567;48.276;14.242;2022-11-27T03:04:29;99709.66;;;1.49;100.00
39897;BME280;25567;48.276;14.242;2022-11-27T03:07:05;99711.88;;;1.54;100.00
39897;BME280;25567;48.276;14.242;2022-11-27T03:09:36;99706.06;;;1.60;100.00
39897;BME280;25567;48.276;14.242;2022-11-27T03:12:06;99699.59;;;1.64;100.00
39897;BME280;25567;48.276;14.242;2022-11-27T03:14:35;99703.72;;;1.67;100.00
39897;BME280;25567;48.276;14.242;2022-11-27T03:20:24;99709.13;;;1.56;100.00
39897;BME280;25567;48.276;14.242;2022-11-27T03:22:48;99697.81;;;1.65;100.00
39897;BME280;25567;48.276;14.242;2022-11-27T03:25:14;99699.22;;;1.59;100.00
39897;BME280;25567;48.276;14.242;2022-11-27T03:27:50;99699.72;;;1.63;100.00
39897;BME280;25567;48.276;14.242;2022-11-27T03:30:19;99697.13;;;1.63;100.00
39897;BME280;25567;48.276;14.242;2022-11-27T03:32:46;99696.72;;;1.67;100.00
39897;BME280;25567;48.276;14.242;2022-11-27T03:35:16;99704.28;;;1.71;100.00
39897;BME280;25567;48.276;14.242;2022-11-27T03:37:44;99702.50;;;1.71;100.00
39897;BME280;25567;48.276;14.242;2022-11-27T03:40:12;99694.34;;;1.74;100.00
39897;BME280;25567;48.276;14.242;2022-11-27T03:42:58;99694.22;;;1.76;100.00
39897;BME280;25567;48.276;14.242;2022-11-27T03:59:24;99689.69;;;1.78;100.00
39897;BME280;25567;48.276;14.242;2022-11-27T04:01:53;99680.72;;;1.80;100.00
39897;BME280;25567;48.276;14.242;2022-11-27T04:04:19;99684.72;;;1.75;100.00
39897;BME280;25567;48.276;14.242;2022-11-27T04:06:46;99686.09;;;1.69;100.00
39897;BME280;25567;48.276;14.242;2022-11-27T04:09:13;99688.72;;;1.69;100.00
39897;BME280;25567;48.276;14.242;2022-11-27T04:11:39;99689.94;;;1.75;100.00
39897;BME280;25567;48.276;14.242;2022-11-27T04:14:06;99679.06;;;1.79;100.00
39897;BME280;25567;48.276;14.242;2022-11-27T04:16:33;99684.00;;;1.82;100.00
39897;BME280;25567;48.276;14.242;2022-11-27T04:19:00;99682.59;;;1.88;100.00
39897;BME280;25567;48.276;14.242;2022-11-27T04:21:26;99684.81;;;1.93;100.00
39897;BME280;25567;48.276;14.242;2022-11-27T04:23:53;99684.38;;;1.97;100.00
39897;BME280;25567;48.276;14.242;2022-11-27T04:26:21;99679.84;;;1.99;100.00
39897;BME280;25567;48.276;14.242;2022-11-27T04:28:48;99679.53;;;2.03;100.00
39897;BME280;25567;48.276;14.242;2022-11-27T04:31:16;99675.66;;;2.07;100.00
39897;BME280;25567;48.276;14.242;2022-11-27T04:33:42;99668.66;;;2.07;100.00
39897;BME280;25567;48.276;14.242;2022-11-27T04:36:09;99670.56;;;2.05;100.00
39897;BME280;25567;48.276;14.242;2022-11-27T04:38:36;99670.44;;;2.07;100.00
39897;BME280;25567;48.276;14.242;2022-11-27T04:41:02;99673.03;;;2.07;100.00
39897;BME280;25567;48.276;14.242;2022-11-27T04:43:29;99679.63;;;2.11;100.00
39897;BME280;25567;48.276;14.242;2022-11-27T04:45:56;99673.44;;;2.12;100.00
39897;BME280;25567;48.276;14.242;2022-11-27T04:48:22;99671.94;;;2.09;100.00
39897;BME280;25567;48.276;14.242;2022-11-27T04:50:49;99662.56;;;2.07;100.00
39897;BME280;25567;48.276;14.242;2022-11-27T04:53:16;99665.88;;;2.09;100.00
39897;BME280;25567;48.276;14.242;2022-11-27T04:55:42;99662.00;;;2.13;100.00
39897;BME280;25567;48.276;14.242;2022-11-27T04:58:09;99664.34;;;2.16;100.00
39897;BME280;25567;48.276;14.242;2022-11-27T05:00:36;99662.56;;;2.16;100.00
39897;BME280;25567;48.276;14.242;2022-11-27T05:03:02;99665.69;;;2.20;100.00
39897;BME280;25567;48.276;14.242;2022-11-27T05:05:29;99664.22;;;2.17;100.00
39897;BME280;25567;48.276;14.242;2022-11-27T05:07:56;99666.56;;;2.39;100.00
39897;BME280;25567;48.276;14.242;2022-11-27T05:10:23;99662.47;;;2.36;100.00
39897;BME280;25567;48.276;14.242;2022-11-27T05:12:49;99664.69;;;2.31;100.00
39897;BME280;25567;48.276;14.242;2022-11-27T05:15:16;99662.19;;;2.29;100.00
39897;BME280;25567;48.276;14.242;2022-11-27T05:17:43;99670.06;;;2.29;100.00
39897;BME280;25567;48.276;14.242;2022-11-27T05:20:13;99665.50;;;2.31;100.00
39897;BME280;25567;48.276;14.242;2022-11-27T05:22:39;99665.66;;;2.30;100.00
39897;BME280;25567;48.276;14.242;2022-11-27T05:25:06;99667.31;;;2.31;100.00
39897;BME280;25567;48.276;14.242;2022-11-27T05:27:34;99666.44;;;2.40;100.00
39897;BME280;25567;48.276;14.242;2022-11-27T05:30:00;99667.03;;;2.34;100.00
39897;BME280;25567;48.276;14.242;2022-11-27T05:32:27;99665.41;;;2.51;100.00
39897;BME280;25567;48.276;14.242;2022-11-27T05:34:53;99666.94;;;2.72;100.00
39897;BME280;25567;48.276;14.242;2022-11-27T05:37:20;99674.31;;;2.58;100.00
39897;BME280;25567;48.276;14.242;2022-11-27T05:39:47;99673.91;;;2.63;100.00
39897;BME280;25567;48.276;14.242;2022-11-27T05:42:13;99672.81;;;2.56;100.00
39897;BME280;25567;48.276;14.242;2022-11-27T05:44:40;99678.44;;;2.61;100.00
39897;BME280;25567;48.276;14.242;2022-11-27T05:47:07;99673.69;;;2.46;100.00
39897;BME280;25567;48.276;14.242;2022-11-27T05:49:34;99664.06;;;2.47;100.00
39897;BME280;25567;48.276;14.242;2022-11-27T05:52:01;99652.75;;;2.46;100.00
39897;BME280;25567;48.276;14.242;2022-11-27T05:54:28;99661.44;;;2.47;100.00
39897;BME280;25567;48.276;14.242;2022-11-27T05:56:54;99666.22;;;2.52;100.00
39897;BME280;25567;48.276;14.242;2022-11-27T05:59:21;99662.31;;;2.65;100.00
39897;BME280;25567;48.276;14.242;2022-11-27T06:01:48;99668.94;;;2.60;100.00
39897;BME280;25567;48.276;14.242;2022-11-27T06:04:15;99663.19;;;2.56;100.00
39897;BME280;25567;48.276;14.242;2022-11-27T06:06:42;99668.69;;;2.53;100.00
39897;BME280;25567;48.276;14.242;2022-11-27T06:09:08;99662.66;;;2.53;100.00
39897;BME280;25567;48.276;14.242;2022-11-27T06:11:39;99666.38;;;2.50;100.00
39897;BME280;25567;48.276;14.242;2022-11-27T06:14:08;99669.47;;;2.63;100.00
39897;BME280;25567;48.276;14.242;2022-11-27T06:16:35;99672.66;;;2.57;100.00
39897;BME280;25567;48.276;14.242;2022-11-27T06:19:02;99672.00;;;2.55;100.00
39897;BME280;25567;48.276;14.242;2022-11-27T06:21:29;99676.44;;;2.55;100.00
39897;BME280;25567;48.276;14.242;2022-11-27T06:23:56;99674.28;;;2.68;100.00
39897;BME280;25567;48.276;14.242;2022-11-27T06:26:26;99683.84;;;2.59;100.00
39897;BME280;25567;48.276;14.242;2022-11-27T06:28:54;99681.69;;;2.55;100.00
39897;BME280;25567;48.276;14.242;2022-11-27T06:31:24;99681.22;;;2.59;100.00
39897;BME280;25567;48.276;14.242;2022-11-27T06:33:52;99687.72;;;2.55;100.00
39897;BME280;25567;48.276;14.242;2022-11-27T06:36:22;99684.16;;;2.56;100.00
39897;BME280;25567;48.276;14.242;2022-11-27T06:38:49;99675.16;;;2.59;100.00
39897;BME280;25567;48.276;14.242;2022-11-27T06:41:18;99680.78;;;2.64;100.00
39897;BME280;25567;48.276;14.242;2022-11-27T06:43:46;99681.47;;;2.66;100.00
39897;BME280;25567;48.276;14.242;2022-11-27T06:46:15;99685.88;;;2.65;100.00
39897;BME280;25567;48.276;14.242;2022-11-27T06:48:43;99685.88;;;2.65;100.00
39897;BME280;25567;48.276;14.242;2022-11-27T06:51:12;99684.06;;;2.66;100.00
39897;BME280;25567;48.276;14.242;2022-11-27T06:53:39;99676.91;;;2.68;100.00
39897;BME280;25567;48.276;14.242;2022-11-27T06:56:09;99677.03;;;2.66;100.00
39897;BME280;25567;48.276;14.242;2022-11-27T06:58:36;99667.94;;;2.71;100.00
39897;BME280;25567;48.276;14.242;2022-11-27T07:01:06;99664.31;;;2.72;100.00
39897;BME280;25567;48.276;14.242;2022-11-27T07:03:33;99665.31;;;2.71;100.00
39897;BME280;25567;48.276;14.242;2022-11-27T07:06:02;99655.78;;;2.70;100.00
39897;BME280;25567;48.276;14.242;2022-11-27T07:08:30;99654.84;;;2.71;100.00
39897;BME280;25567;48.276;14.242;2022-11-27T07:11:03;99652.22;;;2.71;100.00
39897;BME280;25567;48.276;14.242;2022-11-27T07:13:31;99654.84;;;2.71;100.00
39897;BME280;25567;48.276;14.242;2022-11-27T07:15:59;99658.09;;;2.73;100.00
39897;BME280;25567;48.276;14.242;2022-11-27T07:18:29;99653.84;;;2.72;100.00
39897;BME280;25567;48.276;14.242;2022-11-27T07:20:56;99656.47;;;2.72;100.00
39897;BME280;25567;48.276;14.242;2022-11-27T07:23:22;99650.94;;;2.75;100.00
39897;BME280;25567;48.276;14.242;2022-11-27T07:25:49;99654.53;;;2.74;100.00
39897;BME280;25567;48.276;14.242;2022-11-27T07:28:16;99648.97;;;2.77;100.00
39897;BME280;25567;48.276;14.242;2022-11-27T07:30:44;99650.94;;;2.75;100.00
39897;BME280;25567;48.276;14.242;2022-11-27T07:33:11;99650.25;;;2.73;100.00
39897;BME280;25567;48.276;14.242;2022-11-27T07:35:38;99650.63;;;2.78;100.00
39897;BME280;25567;48.276;14.242;2022-11-27T07:38:04;99650.63;;;2.78;100.00
39897;BME280;25567;48.276;14.242;2022-11-27T07:40:31;99651.00;;;2.83;100.00
39897;BME280;25567;48.276;14.242;2022-11-27T07:42:58;99648.81;;;2.78;100.00
39897;BME280;25567;48.276;14.242;2022-11-27T07:45:24;99656.56;;;2.80;100.00
39897;BME280;25567;48.276;14.242;2022-11-27T07:47:51;99651.97;;;2.82;100.00
39897;BME280;25567;48.276;14.242;2022-11-27T07:50:18;99647.56;;;2.82;100.00
39897;BME280;25567;48.276;14.242;2022-11-27T07:52:45;99656.41;;;2.81;100.00
39897;BME280;25567;48.276;14.242;2022-11-27T07:55:11;99644.13;;;2.82;100.00
39897;BME280;25567;48.276;14.242;2022-11-27T07:57:38;99646.16;;;2.88;100.00
39897;BME280;25567;48.276;14.242;2022-11-27T08:00:05;99640.91;;;2.88;100.00
39897;BME280;25567;48.276;14.242;2022-11-27T08:02:32;99642.56;;;2.89;100.00
39897;BME280;25567;48.276;14.242;2022-11-27T08:04:59;99636.47;;;2.89;100.00
39897;BME280;25567;48.276;14.242;2022-11-27T08:07:28;99640.91;;;2.88;100.00
39897;BME280;25567;48.276;14.242;2022-11-27T08:09:55;99635.66;;;2.88;100.00
39897;BME280;25567;48.276;14.242;2022-11-27T08:12:24;99644.50;;;2.87;100.00
39897;BME280;25567;48.276;14.242;2022-11-27T08:14:51;99645.63;;;2.84;100.00
39897;BME280;25567;48.276;14.242;2022-11-27T08:17:18;99651.41;;;2.88;100.00
39897;BME280;25567;48.276;14.242;2022-11-27T08:19:44;99657.06;;;2.83;100.00
39897;BME280;25567;48.276;14.242;2022-11-27T08:22:12;99652.66;;;2.84;100.00
39897;BME280;25567;48.276;14.242;2022-11-27T08:24:39;99646.59;;;2.83;100.00
39897;BME280;25567;48.276;14.242;2022-11-27T08:27:09;99647.13;;;2.87;100.00
39897;BME280;25567;48.276;14.242;2022-11-27T08:29:36;99653.88;;;2.90;100.00
39897;BME280;25567;48.276;14.242;2022-11-27T08:32:04;99654.69;;;2.90;100.00
39897;BME280;25567;48.276;14.242;2022-11-27T08:34:31;99649.28;;;2.92;100.00
39897;BME280;25567;48.276;14.242;2022-11-27T08:36:58;99644.50;;;2.87;100.00
39897;BME280;25567;48.276;14.242;2022-11-27T08:39:25;99641.19;;;2.85;100.00
39897;BME280;25567;48.276;14.242;2022-11-27T08:41:53;99640.22;;;2.86;100.00
39897;BME280;25567;48.276;14.242;2022-11-27T08:44:19;99634.97;;;2.86;100.00
39897;BME280;25567;48.276;14.242;2022-11-27T08:46:46;99628.78;;;2.87;100.00
39897;BME280;25567;48.276;14.242;2022-11-27T08:49:13;99630.72;;;2.85;100.00
39897;BME280;25567;48.276;14.242;2022-11-27T08:51:40;99635.38;;;2.91;100.00
39897;BME280;25567;48.276;14.242;2022-11-27T08:54:09;99622.84;;;2.85;100.00
39897;BME280;25567;48.276;14.242;2022-11-27T08:56:35;99633.09;;;2.78;100.00
39897;BME280;25567;48.276;14.242;2022-11-27T08:59:02;99627.06;;;2.78;100.00
39897;BME280;25567;48.276;14.242;2022-11-27T09:01:30;99627.75;;;2.80;100.00
39897;BME280;25567;48.276;14.242;2022-11-27T09:03:58;99625.13;;;2.80;100.00
39897;BME280;25567;48.276;14.242;2022-11-27T09:06:28;99608.41;;;2.81;100.00
39897;BME280;25567;48.276;14.242;2022-11-27T09:08:58;99618.38;;;2.77;100.00
39897;BME280;25567;48.276;14.242;2022-11-27T09:11:26;99608.19;;;2.74;100.00
39897;BME280;25567;48.276;14.242;2022-11-27T09:13:54;99606.41;;;2.75;100.00
39897;BME280;25567;48.276;14.242;2022-11-27T09:16:21;99598.31;;;2.68;100.00
39897;BME280;25567;48.276;14.242;2022-11-27T09:18:49;99603.41;;;2.70;100.00
39897;BME280;25567;48.276;14.242;2022-11-27T09:21:22;99591.81;;;2.72;100.00
39897;BME280;25567;48.276;14.242;2022-11-27T09:23:54;99597.84;;;2.73;100.00
39897;BME280;25567;48.276;14.242;2022-11-27T09:26:21;99597.19;;;2.71;100.00
39897;BME280;25567;48.276;14.242;2022-11-27T09:28:52;99595.91;;;2.75;100.00
39897;BME280;25567;48.276;14.242;2022-11-27T09:31:19;99589.84;;;2.74;100.00
39897;BME280;25567;48.276;14.242;2022-11-27T09:33:47;99587.06;;;2.76;100.00
39897;BME280;25567;48.276;14.242;2022-11-27T09:36:17;99576.47;;;2.77;100.00
39897;BME280;25567;48.276;14.242;2022-11-27T09:38:45;99571.50;;;2.74;100.00
39897;BME280;25567;48.276;14.242;2022-11-27T09:41:37;99574.13;;;2.74;100.00
39897;BME280;25567;48.276;14.242;2022-11-27T09:47:00;99576.31;;;2.79;100.00
39897;BME280;25567;48.276;14.242;2022-11-27T09:49:35;99573.91;;;2.86;100.00
39897;BME280;25567;48.276;14.242;2022-11-27T09:53:04;99566.19;;;2.84;100.00
39897;BME280;25567;48.276;14.242;2022-11-27T09:55:00;99569.19;;;2.89;100.00
39897;BME280;25567;48.276;14.242;2022-11-27T09:57:32;99569.47;;;2.86;100.00
39897;BME280;25567;48.276;14.242;2022-11-27T10:00:17;99574.78;;;2.94;100.00
39897;BME280;25567;48.276;14.242;2022-11-27T10:02:44;99577.41;;;2.94;100.00
39897;BME280;25567;48.276;14.242;2022-11-27T10:05:24;99576.75;;;2.92;100.00
39897;BME280;25567;48.276;14.242;2022-11-27T10:08:12;99561.53;;;2.96;100.00
39897;BME280;25567;48.276;14.242;2022-11-27T10:16:13;99546.47;;;2.98;100.00
39897;BME280;25567;48.276;14.242;2022-11-27T10:18:51;99540.69;;;2.94;100.00
39897;BME280;25567;48.276;14.242;2022-11-27T10:21:24;99536.00;;;2.98;100.00
39897;BME280;25567;48.276;14.242;2022-11-27T10:24:00;99538.59;;;2.98;100.00
39897;BME280;25567;48.276;14.242;2022-11-27T10:26:38;99529.09;;;2.97;100.00
39897;BME280;25567;48.276;14.242;2022-11-27T10:31:59;99518.97;;;3.02;100.00
39897;BME280;25567;48.276;14.242;2022-11-27T10:34:37;99514.69;;;3.01;100.00
39897;BME280;25567;48.276;14.242;2022-11-27T10:37:21;99515.38;;;3.03;100.00
39897;BME280;25567;48.276;14.242;2022-11-27T10:39:58;99509.97;;;3.05;100.00
39897;BME280;25567;48.276;14.242;2022-11-27T10:42:34;99500.34;;;3.05;100.00
39897;BME280;25567;48.276;14.242;2022-11-27T10:45:04;99490.63;;;2.97;100.00
39897;BME280;25567;48.276;14.242;2022-11-27T10:47:32;99483.56;;;2.98;100.00
39897;BME280;25567;48.276;14.242;2022-11-27T10:49:59;99478.84;;;3.02;100.00
39897;BME280;25567;48.276;14.242;2022-11-27T10:52:26;99472.63;;;3.03;100.00
39897;BME280;25567;48.276;14.242;2022-11-27T10:54:57;99472.75;;;3.01;100.00
39897;BME280;25567;48.276;14.242;2022-11-27T10:57:44;99466.41;;;3.04;100.00
39897;BME280;25567;48.276;14.242;2022-11-27T11:00:22;99459.22;;;3.06;100.00
39897;BME280;25567;48.276;14.242;2022-11-27T11:02:58;99462.50;;;3.08;100.00
39897;BME280;25567;48.276;14.242;2022-11-27T11:05:26;99452.69;;;3.10;100.00
39897;BME280;25567;48.276;14.242;2022-11-27T11:08:16;99449.09;;;3.11;100.00
39897;BME280;25567;48.276;14.242;2022-11-27T11:10:50;99449.72;;;3.13;100.00
39897;BME280;25567;48.276;14.242;2022-11-27T11:13:21;99439.94;;;3.15;100.00
39897;BME280;25567;48.276;14.242;2022-11-27T11:15:51;99448.13;;;3.12;100.00
39897;BME280;25567;48.276;14.242;2022-11-27T11:18:22;99436.34;;;3.16;100.00
39897;BME280;25567;48.276;14.242;2022-11-27T11:20:52;99435.38;;;3.17;100.00
39897;BME280;25567;48.276;14.242;2022-11-27T11:23:23;99428.50;;;3.24;100.00
39897;BME280;25567;48.276;14.242;2022-11-27T11:25:54;99435.03;;;3.20;100.00
39897;BME280;25567;48.276;14.242;2022-11-27T11:28:22;99437.50;;;3.22;100.00
39897;BME280;25567;48.276;14.242;2022-11-27T11:30:53;99435.41;;;3.25;100.00
39897;BME280;25567;48.276;14.242;2022-11-27T11:33:21;99425.56;;;3.27;100.00
39897;BME280;25567;48.276;14.242;2022-11-27T11:35:53;99427.72;;;3.32;100.00
39897;BME280;25567;48.276;14.242;2022-11-27T11:38:27;99428.84;;;3.29;100.00
39897;BME280;25567;48.276;14.242;2022-11-27T11:41:01;99417.41;;;3.30;100.00
39897;BME280;25567;48.276;14.242;2022-11-27T11:43:31;99413.78;;;3.31;100.00
39897;BME280;25567;48.276;14.242;2022-11-27T11:46:16;99411.50;;;3.37;100.00
39897;BME280;25567;48.276;14.242;2022-11-27T11:49:00;99412.16;;;3.39;100.00
39897;BME280;25567;48.276;14.242;2022-11-27T11:57:02;99399.75;;;3.49;100.00
39897;BME280;25567;48.276;14.242;2022-11-27T11:59:49;99390.25;;;3.48;100.00
39897;BME280;25567;48.276;14.242;2022-11-27T12:02:38;99392.88;;;3.48;100.00
39897;BME280;25567;48.276;14.242;2022-11-27T12:16:14;99374.06;;;3.61;100.00
39897;BME280;25567;48.276;14.242;2022-11-27T12:21:41;99361.06;;;3.59;100.00
39897;BME280;25567;48.276;14.242;2022-11-27T12:24:32;99360.59;;;3.72;100.00
39897;BME280;25567;48.276;14.242;2022-11-27T12:27:14;99357.34;;;3.70;100.00
39897;BME280;25567;48.276;14.242;2022-11-27T12:30:05;99348.63;;;3.78;100.00
39897;BME280;25567;48.276;14.242;2022-11-27T12:38:37;99338.00;;;3.88;100.00
39897;BME280;25567;48.276;14.242;2022-11-27T12:43:37;99331.91;;;4.12;100.00
39897;BME280;25567;48.276;14.242;2022-11-27T12:46:15;99331.59;;;4.07;100.00
39897;BME280;25567;48.276;14.242;2022-11-27T12:48:51;99321.94;;;4.07;100.00
39897;BME280;25567;48.276;14.242;2022-11-27T12:51:23;99322.41;;;4.27;100.00
39897;BME280;25567;48.276;14.242;2022-11-27T12:53:58;99326.81;;;4.43;100.00
39897;BME280;25567;48.276;14.242;2022-11-27T12:56:35;99321.69;;;4.50;100.00
39897;BME280;25567;48.276;14.242;2022-11-27T12:59:24;99324.41;;;4.73;100.00
39897;BME280;25567;48.276;14.242;2022-11-27T13:02:03;99314.81;;;4.97;100.00
39897;BME280;25567;48.276;14.242;2022-11-27T13:04:42;99314.75;;;5.05;100.00
39897;BME280;25567;48.276;14.242;2022-11-27T13:07:17;99308.59;;;5.21;100.00
39897;BME280;25567;48.276;14.242;2022-11-27T13:13:03;99309.94;;;5.17;100.00
39897;BME280;25567;48.276;14.242;2022-11-27T13:15:43;99312.06;;;5.22;100.00
39897;BME280;25567;48.276;14.242;2022-11-27T13:18:17;99319.06;;;5.38;100.00
39897;BME280;25567;48.276;14.242;2022-11-27T13:20:46;99322.09;;;5.49;100.00
39897;BME280;25567;48.276;14.242;2022-11-27T13:23:21;99318.06;;;5.62;100.00
39897;BME280;25567;48.276;14.242;2022-11-27T13:25:51;99318.13;;;5.77;100.00
39897;BME280;25567;48.276;14.242;2022-11-27T13:31:03;99311.94;;;6.16;100.00
39897;BME280;25567;48.276;14.242;2022-11-27T13:33:36;99311.63;;;6.49;99.64
39897;BME280;25567;48.276;14.242;2022-11-27T13:36:06;99316.25;;;6.92;98.04
39897;BME280;25567;48.276;14.242;2022-11-27T13:38:36;99307.03;;;7.03;94.85
39897;BME280;25567;48.276;14.242;2022-11-27T13:41:07;99308.50;;;7.42;93.52
39897;BME280;25567;48.276;14.242;2022-11-27T13:43:43;99307.44;;;7.58;90.13
39897;BME280;25567;48.276;14.242;2022-11-27T13:46:19;99306.84;;;7.77;88.05
39897;BME280;25567;48.276;14.242;2022-11-27T13:48:51;99290.41;;;8.10;89.05
39897;BME280;25567;48.276;14.242;2022-11-27T13:51:35;99281.72;;;8.73;85.81
39897;BME280;25567;48.276;14.242;2022-11-27T13:56:34;99275.25;;;10.31;79.10
39897;BME280;25567;48.276;14.242;2022-11-27T13:59:13;99270.41;;;11.32;72.11
39897;BME280;25567;48.276;14.242;2022-11-27T14:01:56;99262.94;;;11.80;67.57
39897;BME280;25567;48.276;14.242;2022-11-27T14:04:25;99257.22;;;11.83;66.71
39897;BME280;25567;48.276;14.242;2022-11-27T14:06:58;99255.91;;;11.99;66.40
39897;BME280;25567;48.276;14.242;2022-11-27T14:09:46;99263.13;;;11.85;67.01
39897;BME280;25567;48.276;14.242;2022-11-27T14:12:21;99258.94;;;12.21;65.43
39897;BME280;25567;48.276;14.242;2022-11-27T14:15:09;99251.06;;;12.51;63.00
39897;BME280;25567;48.276;14.242;2022-11-27T14:17:48;99244.63;;;12.22;63.38
39897;BME280;25567;48.276;14.242;2022-11-27T14:22:46;99243.44;;;11.93;64.68
39897;BME280;25567;48.276;14.242;2022-11-27T14:25:34;99236.97;;;11.57;65.67
39897;BME280;25567;48.276;14.242;2022-11-27T14:28:18;99234.91;;;11.27;67.50
39897;BME280;25567;48.276;14.242;2022-11-27T14:30:50;99232.44;;;10.93;69.15